Time;durP1;ratioP1;P1;durP2;ratioP2;P2;SDS_P1;SDS_P2;PMS_P1;PMS_P2;Temp;Humidity;BMP_temperature;BMP_pressure;BME280_temperature;BME280_humidity;BME280_pressure;Samples;Min_cycle;Max_cycle;Signal;HPM_P1;HPM_P2
2022/04/17 04:02:08;;;;;;;3.30;3.10;;;5.00;95.30;;;;;;5196404;23;20524;-67
2022/04/17 04:04:35;;;;;;;3.33;3.13;;;4.90;95.90;;;;;;4975055;28;20513;-68
2022/04/17 04:07:02;;;;;;;3.50;3.20;;;5.00;96.20;;;;;;4975005;28;20451;-68
2022/04/17 04:09:29;;;;;;;4.07;3.33;;;4.90;96.30;;;;;;4974922;28;20861;-67
2022/04/17 04:11:56;;;;;;;3.57;2.90;;;5.00;97.00;;;;;;4974852;28;20474;-68
2022/04/17 04:14:22;;;;;;;3.17;2.97;;;5.10;96.50;;;;;;4974533;28;20455;-68
2022/04/17 04:16:49;;;;;;;3.30;3.10;;;5.00;96.20;;;;;;4974867;28;20825;-68
2022/04/17 04:19:17;;;;;;;3.33;3.13;;;5.10;96.40;;;;;;4974855;28;20482;-68
2022/04/17 04:21:49;;;;;;;3.37;3.17;;;5.00;96.40;;;;;;4974823;28;20478;-68
2022/04/17 04:24:18;;;;;;;3.43;3.23;;;5.00;96.30;;;;;;4974935;28;20443;-68
2022/04/17 04:26:44;;;;;;;3.67;3.10;;;5.00;96.70;;;;;;4974830;28;20454;-68
2022/04/17 04:29:10;;;;;;;3.70;3.40;;;5.00;96.60;;;;;;4974745;28;20497;-68
2022/04/17 04:31:37;;;;;;;3.83;3.53;;;5.00;96.80;;;;;;4974941;28;20506;-67
2022/04/17 04:34:04;;;;;;;4.30;3.00;;;5.00;97.10;;;;;;4974857;28;20458;-68
2022/04/17 04:36:32;;;;;;;3.30;3.00;;;5.10;96.80;;;;;;4975017;28;20459;-67
2022/04/17 04:38:59;;;;;;;3.57;3.27;;;4.90;96.70;;;;;;4976909;28;20482;-67
2022/04/17 04:41:25;;;;;;;3.87;3.57;;;4.90;97.10;;;;;;4978654;28;20485;-67
2022/04/17 04:43:52;;;;;;;3.30;3.10;;;4.90;97.10;;;;;;4978758;28;20466;-68
2022/04/17 04:46:19;;;;;;;4.03;3.63;;;4.80;97.10;;;;;;4978607;28;20513;-67
2022/04/17 04:51:31;;;;;;;3.30;3.10;;;4.70;97.80;;;;;;4981418;28;20506;-67
2022/04/17 04:53:59;;;;;;;3.60;3.40;;;4.60;98.20;;;;;;4990455;28;20942;-68
2022/04/17 04:56:26;;;;;;;3.77;3.47;;;4.70;98.10;;;;;;4978635;28;20458;-68
2022/04/17 04:58:52;;;;;;;3.13;2.93;;;4.70;98.40;;;;;;4978444;28;20482;-67
2022/04/17 05:01:19;;;;;;;3.30;3.00;;;4.80;98.60;;;;;;4977821;28;20489;-67
2022/04/17 05:03:46;;;;;;;3.60;3.40;;;4.80;98.30;;;;;;4978856;28;20455;-68
2022/04/17 05:06:13;;;;;;;3.30;3.10;;;4.80;98.40;;;;;;4978565;28;20954;-68
2022/04/17 05:08:41;;;;;;;3.70;3.40;;;4.80;98.80;;;;;;4978792;28;20458;-68
2022/04/17 05:11:08;;;;;;;5.40;3.77;;;4.80;99.00;;;;;;4978597;28;20475;-68
2022/04/17 05:13:35;;;;;;;5.37;3.60;;;4.80;99.00;;;;;;4977809;28;20470;-68
2022/04/17 05:16:02;;;;;;;3.60;3.30;;;4.90;99.20;;;;;;4977606;28;20547;-68
2022/04/17 05:18:29;;;;;;;3.47;3.17;;;4.90;99.20;;;;;;4977663;28;20482;-68
2022/04/17 05:20:56;;;;;;;3.50;3.30;;;4.90;98.60;;;;;;4977803;28;20525;-68
2022/04/17 05:23:26;;;;;;;3.10;2.90;;;5.00;98.50;;;;;;4977598;28;20942;-68
2022/04/17 05:25:56;;;;;;;3.57;2.60;;;5.10;98.50;;;;;;4977662;28;20459;-68
2022/04/17 05:28:23;;;;;;;3.73;3.43;;;5.20;98.20;;;;;;4977884;28;20451;-68
2022/04/17 05:30:50;;;;;;;3.30;3.10;;;5.30;98.10;;;;;;4977738;28;20485;-68
2022/04/17 05:33:18;;;;;;;3.70;3.50;;;5.40;98.10;;;;;;4977645;28;20455;-69
2022/04/17 05:35:45;;;;;;;2.87;2.70;;;5.50;98.30;;;;;;4977485;28;20766;-68
2022/04/17 05:38:12;;;;;;;3.30;3.10;;;5.50;98.30;;;;;;4977457;28;20840;-68
2022/04/17 05:40:42;;;;;;;4.87;3.90;;;5.60;97.80;;;;;;4977490;28;20551;-69
2022/04/17 05:43:10;;;;;;;4.20;3.90;;;5.70;97.50;;;;;;4978169;28;20483;-68
2022/04/17 05:45:38;;;;;;;3.40;3.20;;;5.90;97.30;;;;;;4978310;28;20810;-68
2022/04/17 05:48:07;;;;;;;4.10;3.17;;;6.20;96.30;;;;;;4977857;28;20454;-68
2022/04/17 05:50:34;;;;;;;3.43;3.13;;;6.50;95.30;;;;;;4977496;28;20479;-68
2022/04/17 05:53:01;;;;;;;2.97;2.77;;;6.90;94.80;;;;;;4977586;28;20968;-68
2022/04/17 05:55:28;;;;;;;3.50;3.30;;;7.30;93.80;;;;;;4977754;28;20463;-68
2022/04/17 05:57:54;;;;;;;3.47;3.20;;;7.60;93.20;;;;;;4977540;28;20478;-67
2022/04/17 06:00:22;;;;;;;4.23;3.83;;;7.80;92.60;;;;;;4977701;28;20459;-67
2022/04/17 06:02:50;;;;;;;3.17;2.87;;;7.90;92.00;;;;;;4977881;28;20446;-67
2022/04/17 06:05:19;;;;;;;2.83;2.70;;;8.30;91.50;;;;;;4977762;28;20462;-68
2022/04/17 06:07:45;;;;;;;3.10;2.90;;;8.80;91.40;;;;;;4977740;28;20546;-69
2022/04/17 06:10:13;;;;;;;3.73;3.43;;;9.20;90.00;;;;;;4977961;28;20455;-68
2022/04/17 06:12:41;;;;;;;4.10;3.80;;;9.80;88.60;;;;;;4979422;28;20451;-68
2022/04/17 06:15:09;;;;;;;5.50;3.03;;;10.30;86.00;;;;;;4979337;28;20459;-68
2022/04/17 06:17:39;;;;;;;3.57;3.27;;;10.90;83.30;;;;;;4980174;28;20451;-68
2022/04/17 06:20:07;;;;;;;3.90;3.50;;;11.50;80.60;;;;;;4978925;28;20455;-69
2022/04/17 06:22:35;;;;;;;3.43;3.13;;;12.10;77.50;;;;;;4976830;28;20514;-67
2022/04/17 06:25:03;;;;;;;3.57;3.30;;;12.50;74.60;;;;;;4976938;28;20459;-67
2022/04/17 06:27:37;;;;;;;4.70;2.90;;;12.80;82.00;;;;;;4976347;28;20466;-69
2022/04/17 06:30:10;;;;;;;3.30;3.07;;;13.20;93.80;;;;;;4977575;28;20443;-68
2022/04/17 06:32:39;;;;;;;3.27;3.07;;;13.70;94.50;;;;;;4977030;28;20978;-66
2022/04/17 06:35:07;;;;;;;2.97;2.77;;;13.80;79.00;;;;;;4976777;28;20815;-66
2022/04/17 06:37:45;;;;;;;3.37;3.17;;;14.00;69.80;;;;;;4977019;28;20938;-65
2022/04/17 06:40:14;;;;;;;3.63;3.20;;;14.20;68.30;;;;;;4977206;28;20475;-65
2022/04/17 06:42:41;;;;;;;3.30;3.00;;;14.40;66.00;;;;;;4976784;28;20973;-65
2022/04/17 06:45:08;;;;;;;3.07;2.87;;;14.70;64.10;;;;;;4976914;28;20451;-69
2022/04/17 06:47:35;;;;;;;3.30;3.00;;;14.90;64.70;;;;;;4977139;28;20455;-66
2022/04/17 06:50:04;;;;;;;3.27;3.07;;;15.20;64.80;;;;;;4977252;28;20460;-65
2022/04/17 06:52:30;;;;;;;3.40;3.20;;;15.30;62.40;;;;;;4976560;28;20483;-66
2022/04/17 06:54:57;;;;;;;3.60;3.40;;;15.50;61.20;;;;;;4976635;28;20455;-65
2022/04/17 06:57:28;;;;;;;5.90;3.00;;;15.90;61.80;;;;;;4976111;28;20447;-66
2022/04/17 06:59:55;;;;;;;3.73;3.43;;;16.20;59.40;;;;;;4976441;28;20474;-65
2022/04/17 07:02:21;;;;;;;3.10;2.87;;;16.60;59.10;;;;;;4975809;28;20487;-65
2022/04/17 07:04:48;;;;;;;2.70;2.60;;;16.80;59.20;;;;;;4976528;28;20454;-65
2022/04/17 07:07:16;;;;;;;3.63;3.33;;;16.80;57.70;;;;;;4976155;28;20463;-65
2022/04/17 07:09:43;;;;;;;5.47;2.90;;;17.00;57.10;;;;;;4976122;28;20826;-65
2022/04/17 07:12:10;;;;;;;3.30;3.10;;;17.30;56.50;;;;;;4976156;28;20475;-67
2022/04/17 07:14:37;;;;;;;3.47;3.27;;;17.30;55.80;;;;;;4976347;28;20461;-66
2022/04/17 07:17:04;;;;;;;3.33;3.10;;;17.60;56.30;;;;;;4977019;28;20985;-67
2022/04/17 07:19:31;;;;;;;3.77;3.57;;;17.70;57.50;;;;;;4976593;28;20482;-67
2022/04/17 07:21:58;;;;;;;3.00;2.80;;;17.90;54.50;;;;;;4976591;28;20915;-68
2022/04/17 07:24:26;;;;;;;3.57;3.27;;;18.10;53.60;;;;;;4976172;28;20533;-66
2022/04/17 07:26:53;;;;;;;3.40;3.20;;;18.40;54.90;;;;;;4976677;28;20463;-68
2022/04/17 07:29:22;;;;;;;3.43;3.23;;;18.70;54.70;;;;;;4976570;28;20478;-67
2022/04/17 07:31:50;;;;;;;3.27;3.07;;;18.80;54.50;;;;;;4976132;28;20511;-67
2022/04/17 07:34:18;;;;;;;3.10;2.80;;;18.90;54.70;;;;;;4976336;28;20518;-67
2022/04/17 07:36:44;;;;;;;3.00;2.67;;;19.10;51.20;;;;;;4977942;28;20443;-67
2022/04/17 07:39:11;;;;;;;2.87;2.70;;;19.40;51.00;;;;;;4987916;28;20475;-67
2022/04/17 07:41:39;;;;;;;2.93;2.73;;;19.70;51.90;;;;;;4978472;28;20479;-66
2022/04/17 07:44:06;;;;;;;2.63;2.47;;;19.80;50.70;;;;;;4976564;28;20463;-67
2022/04/17 07:46:33;;;;;;;3.33;2.80;;;20.00;49.80;;;;;;4975806;28;20870;-67
2022/04/17 07:49:00;;;;;;;2.67;2.40;;;20.20;50.50;;;;;;4976133;28;20446;-68
2022/04/17 07:51:26;;;;;;;3.33;3.03;;;20.40;49.00;;;;;;4975695;28;20479;-66
2022/04/17 07:53:53;;;;;;;2.80;2.60;;;20.60;48.40;;;;;;4975478;28;20540;-66
2022/04/17 07:56:20;;;;;;;3.37;3.07;;;20.90;48.70;;;;;;4975164;28;20455;-66
2022/04/17 07:58:48;;;;;;;2.77;2.57;;;21.30;48.20;;;;;;4974672;28;20482;-66
2022/04/17 08:01:16;;;;;;;3.00;2.70;;;21.40;47.70;;;;;;4975472;28;20494;-67
2022/04/17 08:03:49;;;;;;;3.20;2.90;;;21.50;45.80;;;;;;4975047;28;20505;-66
2022/04/17 08:06:17;;;;;;;3.13;2.93;;;21.30;46.10;;;;;;4974807;28;20906;-67
2022/04/17 08:08:45;;;;;;;2.33;2.23;;;20.80;46.90;;;;;;4975297;28;20538;-66
2022/04/17 08:11:12;;;;;;;3.20;2.90;;;21.00;47.10;;;;;;4975020;28;20474;-66
2022/04/17 08:13:42;;;;;;;2.80;2.60;;;20.80;44.60;;;;;;4977925;28;20968;-66
2022/04/17 08:16:10;;;;;;;2.30;2.17;;;20.50;46.00;;;;;;4981294;28;20465;-66
2022/04/17 08:18:37;;;;;;;3.20;3.00;;;20.50;46.50;;;;;;4981051;28;20482;-66
2022/04/17 08:21:04;;;;;;;2.80;2.43;;;20.40;45.20;;;;;;4982872;28;20518;-67
2022/04/17 08:23:31;;;;;;;2.27;2.10;;;20.20;45.20;;;;;;4988124;28;20459;-67
2022/04/17 08:25:58;;;;;;;2.60;2.40;;;20.30;47.00;;;;;;4987037;28;20451;-67
2022/04/17 08:28:25;;;;;;;2.40;2.30;;;20.70;46.70;;;;;;4981933;28;20466;-67
2022/04/17 08:30:52;;;;;;;2.00;1.90;;;21.20;46.40;;;;;;4981506;28;20844;-67
2022/04/17 08:33:20;;;;;;;2.00;1.50;;;21.40;43.70;;;;;;4981439;28;20461;-66
2022/04/17 08:35:46;;;;;;;2.20;2.10;;;21.40;43.90;;;;;;4981244;28;20505;-66
2022/04/17 08:38:16;;;;;;;2.60;1.87;;;21.40;44.10;;;;;;4981318;28;20535;-65
2022/04/17 08:40:43;;;;;;;2.30;2.20;;;21.60;42.90;;;;;;4981149;28;20572;-66
2022/04/17 08:43:09;;;;;;;2.60;2.00;;;21.70;42.50;;;;;;4981141;28;20454;-66
2022/04/17 08:45:37;;;;;;;2.07;1.97;;;21.60;42.10;;;;;;4981369;28;20458;-65
2022/04/17 08:48:05;;;;;;;2.23;2.13;;;21.50;41.20;;;;;;4981247;28;20825;-65
2022/04/17 08:50:33;;;;;;;2.17;1.97;;;21.40;40.30;;;;;;4981391;28;20508;-65
2022/04/17 08:53:00;;;;;;;1.90;1.80;;;21.10;40.30;;;;;;4981109;28;20541;-65
2022/04/17 08:55:27;;;;;;;3.43;1.83;;;21.10;41.40;;;;;;4981509;28;20490;-64
2022/04/17 08:57:54;;;;;;;2.70;2.50;;;21.10;40.70;;;;;;4981253;28;20458;-65
2022/04/17 09:00:21;;;;;;;1.93;1.80;;;21.30;40.90;;;;;;4980709;28;20785;-65
2022/04/17 09:02:49;;;;;;;1.90;1.80;;;21.00;39.80;;;;;;4981411;28;20435;-65
2022/04/17 09:05:18;;;;;;;2.50;2.30;;;21.00;40.80;;;;;;4981166;28;20446;-65
2022/04/17 09:07:49;;;;;;;2.07;1.97;;;20.90;42.30;;;;;;4980783;28;20466;-65
2022/04/17 09:10:26;;;;;;;2.37;2.27;;;20.90;41.00;;;;;;4980891;28;20434;-67
2022/04/17 09:12:54;;;;;;;7.10;2.67;;;21.40;41.90;;;;;;4981199;28;20478;-66
2022/04/17 09:15:24;;;;;;;2.00;1.90;;;21.70;41.20;;;;;;4980931;28;20450;-66
2022/04/17 09:17:53;;;;;;;2.23;2.03;;;22.20;40.30;;;;;;4981986;28;20788;-65
2022/04/17 09:20:21;;;;;;;1.80;1.70;;;22.40;40.60;;;;;;4980591;28;20993;-65
2022/04/17 09:22:51;;;;;;;2.33;2.13;;;22.60;40.00;;;;;;4981024;28;20458;-66
2022/04/17 09:25:18;;;;;;;2.50;2.10;;;22.80;39.20;;;;;;4977881;28;20458;-66
2022/04/17 09:27:56;;;;;;;1.80;1.70;;;23.10;39.10;;;;;;4977608;28;20949;-66
2022/04/17 09:30:28;;;;;;;3.90;2.20;;;23.50;39.30;;;;;;4977598;28;20493;-66
2022/04/17 09:32:55;;;;;;;1.90;1.80;;;24.00;39.00;;;;;;4977809;28;20488;-66
2022/04/17 09:35:23;;;;;;;1.80;1.70;;;24.50;38.20;;;;;;4977706;28;20458;-66
2022/04/17 09:37:55;;;;;;;2.43;2.20;;;24.50;38.80;;;;;;4981553;28;20486;-67
2022/04/17 09:40:23;;;;;;;2.53;2.00;;;24.20;42.50;;;;;;4980354;28;20474;-66
2022/04/17 09:42:50;;;;;;;2.10;1.93;;;24.50;38.90;;;;;;4980522;28;20459;-65
2022/04/17 09:45:17;;;;;;;2.10;2.00;;;24.00;39.70;;;;;;4979973;28;20862;-65
2022/04/17 09:47:56;;;;;;;2.93;2.30;;;23.70;39.70;;;;;;4980540;28;20485;-65
2022/04/17 09:50:32;;;;;;;1.80;1.60;;;23.90;41.10;;;;;;4979885;28;20434;-67
2022/04/17 09:53:05;;;;;;;2.00;1.90;;;24.70;39.10;;;;;;4979698;28;20470;-66
2022/04/17 09:55:38;;;;;;;1.73;1.63;;;25.20;37.60;;;;;;4978844;28;20447;-67
2022/04/17 09:58:05;;;;;;;1.80;1.70;;;25.20;38.10;;;;;;4978577;28;20542;-67
2022/04/17 10:00:42;;;;;;;1.60;1.60;;;25.40;38.40;;;;;;4978848;28;20491;-67
2022/04/17 10:03:09;;;;;;;3.30;1.73;;;25.60;37.60;;;;;;4979428;28;20485;-67
2022/04/17 10:05:37;;;;;;;2.40;2.30;;;25.90;37.30;;;;;;4979047;28;20497;-67
2022/04/17 10:08:10;;;;;;;4.80;4.40;;;25.90;35.70;;;;;;4977808;28;20502;-68
2022/04/17 10:10:37;;;;;;;3.27;2.30;;;25.40;37.00;;;;;;4977747;28;20474;-67
2022/04/17 10:13:04;;;;;;;1.63;1.53;;;25.70;36.50;;;;;;4977647;28;20462;-64
2022/04/17 10:15:30;;;;;;;1.60;1.50;;;25.70;37.80;;;;;;4977356;28;20868;-66
2022/04/17 10:18:01;;;;;;;1.90;1.77;;;25.50;36.80;;;;;;4977160;28;20462;-65
2022/04/17 10:20:28;;;;;;;1.53;1.40;;;25.40;37.60;;;;;;4976781;28;20463;-65
2022/04/17 10:23:01;;;;;;;2.07;1.63;;;25.30;35.20;;;;;;4976968;28;20462;-66
2022/04/17 10:25:32;;;;;;;1.77;1.67;;;25.50;35.10;;;;;;4976904;28;20470;-65
2022/04/17 10:28:01;;;;;;;1.50;1.40;;;25.70;34.70;;;;;;4977319;28;20446;-65
2022/04/17 10:30:38;;;;;;;1.50;1.50;;;25.80;34.20;;;;;;4976881;28;20788;-69
2022/04/17 10:33:38;;;;;;;1.87;1.77;;;25.60;34.60;;;;;;4976850;28;20446;-68
2022/04/17 10:36:27;;;;;;;1.60;1.50;;;25.40;35.90;;;;;;4976460;28;20450;-68
2022/04/17 10:39:09;;;;;;;2.17;1.97;;;25.50;36.90;;;;;;4976682;28;20435;-69
2022/04/17 10:41:40;;;;;;;2.70;2.00;;;25.50;37.50;;;;;;4976533;28;20865;-68
2022/04/17 10:44:10;;;;;;;2.93;1.83;;;25.40;37.40;;;;;;4976562;28;20435;-68
2022/04/17 10:46:48;;;;;;;3.17;2.97;;;24.60;36.40;;;;;;4976324;28;20794;-69
2022/04/17 10:49:18;;;;;;;2.30;1.50;;;24.80;36.20;;;;;;4976027;28;20814;-69
2022/04/17 10:51:51;;;;;;;1.67;1.57;;;25.00;35.70;;;;;;4976345;28;20526;-69
2022/04/17 10:54:18;;;;;;;1.57;1.47;;;25.30;37.90;;;;;;4976337;28;20477;-69
2022/04/17 10:57:01;;;;;;;2.73;1.93;;;25.40;36.40;;;;;;4975919;28;20946;-69
2022/04/17 10:59:29;;;;;;;2.63;2.10;;;25.00;36.50;;;;;;4976278;28;20502;-69
2022/04/17 11:02:00;;;;;;;2.07;1.90;;;24.70;38.40;;;;;;4976081;28;21040;-69
2022/04/17 11:04:29;;;;;;;2.60;1.80;;;24.20;35.90;;;;;;4976013;28;20446;-69
2022/04/17 11:07:29;;;;;;;1.60;1.50;;;23.70;36.50;;;;;;4976001;28;20454;-69
2022/04/17 11:10:20;;;;;;;3.80;1.50;;;23.70;38.90;;;;;;4976094;28;20454;-70
2022/04/17 11:12:51;;;;;;;2.00;1.90;;;23.80;38.50;;;;;;4976108;28;20449;-67
2022/04/17 11:15:28;;;;;;;1.60;1.50;;;23.70;38.00;;;;;;4976081;28;20439;-67
2022/04/17 11:17:58;;;;;;;1.93;1.40;;;23.50;37.70;;;;;;4975779;28;20442;-68
2022/04/17 11:20:25;;;;;;;2.17;2.00;;;23.10;38.10;;;;;;4976309;28;20471;-67
2022/04/17 11:22:52;;;;;;;1.60;1.50;;;23.20;40.80;;;;;;4975676;28;20445;-68
2022/04/17 11:25:18;;;;;;;1.50;1.40;;;23.00;39.30;;;;;;4982859;28;20482;-67
2022/04/17 11:27:50;;;;;;;7.73;2.13;;;23.00;38.60;;;;;;4984193;28;20465;-68
2022/04/17 11:30:32;;;;;;;2.00;1.90;;;22.60;49.20;;;;;;4978105;28;20435;-67
2022/04/17 11:33:01;;;;;;;1.90;1.80;;;22.50;48.90;;;;;;4976618;28;20789;-67
2022/04/17 11:35:30;;;;;;;1.73;1.63;;;22.50;43.80;;;;;;4976233;28;20455;-67
2022/04/17 11:38:05;;;;;;;1.93;1.67;;;22.20;39.10;;;;;;4975792;28;20454;-67
2022/04/17 11:40:34;;;;;;;2.30;1.83;;;21.70;39.50;;;;;;4976514;28;20478;-67
2022/04/17 11:43:11;;;;;;;1.47;1.47;;;21.20;39.20;;;;;;4980521;28;20458;-68
2022/04/17 11:45:38;;;;;;;1.77;1.67;;;20.90;43.40;;;;;;4983038;28;20457;-67
2022/04/17 11:48:08;;;;;;;2.00;1.77;;;20.80;42.80;;;;;;4982383;28;20463;-68
2022/04/17 11:50:35;;;;;;;1.90;1.80;;;20.70;41.70;;;;;;4979698;28;20481;-67
2022/04/17 11:53:02;;;;;;;1.60;1.50;;;20.80;43.10;;;;;;4975489;28;20450;-66
2022/04/17 11:55:31;;;;;;;2.03;1.60;;;20.50;42.30;;;;;;4975465;28;20458;-66
2022/04/17 11:57:59;;;;;;;2.13;1.60;;;20.40;45.20;;;;;;4974986;28;20966;-67
2022/04/17 12:00:29;;;;;;;3.50;2.43;;;20.50;44.80;;;;;;4975093;28;20478;-68
2022/04/17 12:03:00;;;;;;;2.13;1.93;;;20.50;44.80;;;;;;4975308;28;20442;-67
2022/04/17 12:05:27;;;;;;;1.80;1.70;;;20.40;42.70;;;;;;4975324;28;20443;-69
2022/04/17 12:08:06;;;;;;;3.13;2.10;;;20.20;40.20;;;;;;4974695;28;20976;-68
2022/04/17 12:10:33;;;;;;;1.77;1.67;;;20.10;42.70;;;;;;4974916;28;20821;-67
2022/04/17 12:13:12;;;;;;;2.83;1.60;;;20.20;41.40;;;;;;4975167;28;20454;-69
2022/04/17 12:15:40;;;;;;;2.03;1.93;;;19.90;45.40;;;;;;4989243;28;20435;-68
2022/04/17 12:18:07;;;;;;;1.93;1.70;;;20.00;42.90;;;;;;4983083;28;20527;-71
2022/04/17 12:20:34;;;;;;;2.13;1.63;;;19.80;41.40;;;;;;4975017;28;20521;-68
2022/04/17 12:23:01;;;;;;;1.77;1.67;;;20.00;40.50;;;;;;4974976;28;20573;-67
2022/04/17 12:25:28;;;;;;;2.60;1.83;;;20.00;39.80;;;;;;4975007;28;20455;-67
2022/04/17 12:27:56;;;;;;;1.70;1.60;;;20.10;42.50;;;;;;4974764;28;20454;-67
2022/04/17 12:30:25;;;;;;;3.03;1.80;;;20.30;43.40;;;;;;4974763;28;20457;-66
2022/04/17 12:32:59;;;;;;;1.60;1.50;;;20.70;42.70;;;;;;4974622;28;20458;-68
2022/04/17 12:35:28;;;;;;;1.63;1.30;;;20.50;40.00;;;;;;4974666;28;20483;-68
2022/04/17 12:38:05;;;;;;;1.37;1.37;;;20.50;38.90;;;;;;4974434;28;20465;-66
2022/04/17 12:40:38;;;;;;;1.97;1.77;;;20.60;41.60;;;;;;4974579;28;20486;-67
2022/04/17 12:43:15;;;;;;;1.80;1.70;;;20.60;39.30;;;;;;4974392;28;20443;-68
2022/04/17 12:45:56;;;;;;;2.13;1.90;;;20.80;40.30;;;;;;4974614;28;20455;-68
2022/04/17 12:48:29;;;;;;;1.70;1.60;;;21.00;42.70;;;;;;4974603;28;20447;-67
2022/04/17 12:51:00;;;;;;;1.37;1.27;;;21.10;41.10;;;;;;4974148;28;20970;-67
2022/04/17 12:53:34;;;;;;;1.30;1.20;;;20.70;41.60;;;;;;4974262;28;20942;-66
2022/04/17 12:56:02;;;;;;;1.50;1.40;;;20.80;41.90;;;;;;4974551;28;20446;-66
2022/04/17 12:58:29;;;;;;;0.90;0.90;;;20.90;41.20;;;;;;4974548;28;20455;-68
2022/04/17 13:00:57;;;;;;;1.53;1.43;;;20.80;38.30;;;;;;4977705;28;20486;-66
2022/04/17 13:03:35;;;;;;;2.23;1.77;;;20.80;38.30;;;;;;4978600;28;20454;-66
2022/04/17 13:06:03;;;;;;;1.60;1.23;;;20.70;38.10;;;;;;4978221;28;20850;-67
2022/04/17 13:08:30;;;;;;;1.40;1.40;;;20.40;37.20;;;;;;4978191;28;20458;-66
2022/04/17 13:10:57;;;;;;;1.43;1.30;;;20.50;40.30;;;;;;4978162;28;20478;-66
2022/04/17 13:13:39;;;;;;;2.23;2.03;;;20.60;40.10;;;;;;4977841;28;20946;-66
2022/04/17 13:16:07;;;;;;;1.10;1.10;;;20.80;41.10;;;;;;4976445;28;20829;-65
2022/04/17 13:18:36;;;;;;;1.43;1.33;;;20.90;41.80;;;;;;4978081;28;20577;-65
2022/04/17 13:21:03;;;;;;;1.83;1.73;;;20.70;38.40;;;;;;4978116;28;20490;-66
2022/04/17 13:23:29;;;;;;;2.00;1.30;;;20.50;38.30;;;;;;4978133;28;20501;-65
2022/04/17 13:25:56;;;;;;;1.50;1.40;;;20.50;42.90;;;;;;4977991;28;20466;-65
2022/04/17 13:28:23;;;;;;;1.30;1.20;;;20.50;42.20;;;;;;4978050;28;20483;-65
2022/04/17 13:30:51;;;;;;;1.57;1.47;;;20.60;42.50;;;;;;4977778;28;20475;-65
2022/04/17 13:33:18;;;;;;;1.40;1.40;;;20.70;40.80;;;;;;4977851;28;20488;-64
2022/04/17 13:35:46;;;;;;;1.40;1.37;;;20.70;41.10;;;;;;4977705;28;20816;-65
2022/04/17 13:38:13;;;;;;;2.00;1.40;;;20.60;40.50;;;;;;4977379;28;20978;-66
2022/04/17 13:40:40;;;;;;;1.30;1.23;;;20.40;41.20;;;;;;4977654;28;20493;-66
2022/04/17 13:43:07;;;;;;;1.63;1.53;;;20.40;41.30;;;;;;4977458;28;20458;-66
2022/04/17 13:45:34;;;;;;;1.47;1.37;;;20.40;42.40;;;;;;4977706;28;20549;-66
2022/04/17 13:48:01;;;;;;;2.40;2.23;;;20.40;43.50;;;;;;4977524;28;20451;-66
2022/04/17 13:50:29;;;;;;;1.77;1.67;;;20.30;42.00;;;;;;4977412;28;20455;-65
2022/04/17 13:52:58;;;;;;;1.80;1.70;;;20.40;42.00;;;;;;4977480;28;20470;-65
2022/04/17 13:55:24;;;;;;;1.70;1.60;;;20.40;40.30;;;;;;4977645;28;20451;-65
2022/04/17 13:57:52;;;;;;;1.70;1.57;;;20.40;40.70;;;;;;4977396;28;20536;-65
2022/04/17 14:00:19;;;;;;;2.00;1.90;;;20.50;42.50;;;;;;4977009;28;20565;-65
2022/04/17 14:02:46;;;;;;;1.83;1.73;;;20.40;42.90;;;;;;4977041;28;20462;-64
2022/04/17 14:05:13;;;;;;;2.40;2.10;;;20.50;43.30;;;;;;4977520;28;20461;-66
2022/04/17 14:07:41;;;;;;;1.90;1.50;;;20.40;42.30;;;;;;4977096;28;20466;-65
2022/04/17 14:10:10;;;;;;;1.80;1.70;;;20.40;42.00;;;;;;4976840;28;20462;-65
2022/04/17 14:12:39;;;;;;;1.70;1.60;;;20.50;41.60;;;;;;4976176;28;20475;-65
2022/04/17 14:15:07;;;;;;;2.10;1.90;;;20.40;41.90;;;;;;4976848;28;20887;-66
2022/04/17 14:17:34;;;;;;;1.90;1.80;;;20.10;43.00;;;;;;4976457;28;20845;-65
2022/04/17 14:20:00;;;;;;;3.50;2.23;;;20.00;44.40;;;;;;4976700;28;20455;-65
2022/04/17 14:22:27;;;;;;;1.90;1.80;;;20.10;44.50;;;;;;4976388;28;20834;-65
2022/04/17 14:24:54;;;;;;;1.90;1.80;;;20.10;43.80;;;;;;4976942;28;20463;-66
2022/04/17 14:27:22;;;;;;;1.80;1.70;;;20.30;42.50;;;;;;4976401;28;20946;-65
2022/04/17 14:29:50;;;;;;;2.00;1.70;;;20.40;45.00;;;;;;4976520;28;20462;-65
2022/04/17 14:32:17;;;;;;;1.47;1.37;;;20.40;41.30;;;;;;4976480;28;20513;-65
2022/04/17 14:34:45;;;;;;;2.10;1.90;;;20.30;41.50;;;;;;4976814;28;20462;-65
2022/04/17 14:37:12;;;;;;;1.80;1.70;;;20.20;43.30;;;;;;4976460;28;20542;-66
2022/04/17 14:39:39;;;;;;;1.77;1.67;;;20.00;42.70;;;;;;4976376;28;20471;-65
2022/04/17 14:42:06;;;;;;;1.77;1.67;;;20.20;44.60;;;;;;4976624;28;20574;-65
2022/04/17 14:44:34;;;;;;;1.63;1.53;;;20.10;42.60;;;;;;4976008;28;20459;-66
2022/04/17 14:47:01;;;;;;;2.00;1.90;;;20.00;42.70;;;;;;4975884;28;20966;-65
2022/04/17 14:49:27;;;;;;;1.40;1.30;;;19.70;41.90;;;;;;4976174;28;20463;-66
2022/04/17 14:51:55;;;;;;;1.50;1.43;;;19.60;43.20;;;;;;4976024;28;20474;-65
2022/04/17 14:54:22;;;;;;;1.87;1.60;;;19.80;44.50;;;;;;4976084;28;20462;-66
2022/04/17 14:56:49;;;;;;;1.50;1.37;;;19.90;42.00;;;;;;4976126;28;20455;-66
2022/04/17 14:59:17;;;;;;;1.90;1.80;;;20.00;41.50;;;;;;4976047;28;20463;-65
2022/04/17 15:01:45;;;;;;;1.33;1.23;;;19.60;40.60;;;;;;4975634;28;20994;-65
2022/04/17 15:04:14;;;;;;;1.70;1.43;;;19.60;42.30;;;;;;4976009;28;20455;-65
2022/04/17 15:06:42;;;;;;;1.67;1.40;;;19.70;41.80;;;;;;4975542;28;20494;-65
2022/04/17 15:09:08;;;;;;;2.30;1.40;;;19.70;41.00;;;;;;4975894;28;20461;-65
2022/04/17 15:11:37;;;;;;;1.63;1.47;;;19.60;40.90;;;;;;4975740;28;20496;-65
2022/04/17 15:14:04;;;;;;;1.60;1.50;;;19.60;39.80;;;;;;4975865;28;20459;-65
2022/04/17 15:16:31;;;;;;;1.50;1.40;;;19.30;41.50;;;;;;4975645;28;20459;-65
2022/04/17 15:18:59;;;;;;;3.13;1.80;;;19.30;41.20;;;;;;4975656;28;20462;-65
2022/04/17 15:21:26;;;;;;;1.33;1.30;;;19.20;41.00;;;;;;4983252;28;21107;-65
2022/04/17 15:23:53;;;;;;;1.13;1.03;;;19.30;41.20;;;;;;4984097;28;20466;-65
2022/04/17 15:26:20;;;;;;;2.53;1.60;;;19.00;39.80;;;;;;4975644;28;20455;-65
2022/04/17 15:28:47;;;;;;;2.53;1.47;;;19.00;40.10;;;;;;4975293;28;20454;-65
2022/04/17 15:31:14;;;;;;;1.57;1.47;;;19.00;38.40;;;;;;4975403;28;20525;-65
2022/04/17 15:33:44;;;;;;;1.70;1.60;;;18.90;39.20;;;;;;4975329;28;20455;-65
2022/04/17 15:36:12;;;;;;;1.53;1.43;;;18.90;39.50;;;;;;4975285;28;20848;-65
2022/04/17 15:38:40;;;;;;;1.73;1.60;;;18.90;39.70;;;;;;4974953;28;20536;-65
2022/04/17 15:41:07;;;;;;;2.30;1.73;;;19.00;39.50;;;;;;4974821;28;20920;-65
2022/04/17 15:49:04;;;;;;;1.77;1.67;;;18.90;39.80;;;;;;4975101;28;20494;-65
2022/04/17 15:51:35;;;;;;;2.30;1.67;;;18.50;40.40;;;;;;4975060;28;20474;-65
2022/04/17 15:54:02;;;;;;;1.80;1.70;;;18.50;41.70;;;;;;4975207;28;20439;-65
2022/04/17 15:56:28;;;;;;;1.53;1.43;;;18.40;41.50;;;;;;4975062;28;20455;-65
2022/04/17 15:58:57;;;;;;;1.13;1.10;;;18.30;42.70;;;;;;4975029;28;20462;-65
2022/04/17 16:01:24;;;;;;;1.63;1.60;;;18.20;39.80;;;;;;4974797;28;20487;-65
2022/04/17 16:03:51;;;;;;;1.90;1.53;;;18.10;39.10;;;;;;4974628;28;20459;-65
2022/04/17 16:06:18;;;;;;;1.80;1.53;;;17.90;40.20;;;;;;4975022;28;20463;-65
2022/04/17 16:08:46;;;;;;;1.87;1.53;;;17.80;40.90;;;;;;4974596;28;20986;-65
2022/04/17 16:11:12;;;;;;;1.90;1.47;;;17.80;41.50;;;;;;4974997;28;20467;-65
2022/04/17 16:13:39;;;;;;;1.23;1.20;;;17.70;41.10;;;;;;4974509;28;20977;-65
2022/04/17 16:16:06;;;;;;;1.20;1.20;;;17.70;41.30;;;;;;4974759;28;20494;-65
2022/04/17 16:18:33;;;;;;;1.43;1.37;;;17.70;41.50;;;;;;4974550;28;20498;-66
2022/04/17 16:21:00;;;;;;;1.67;1.57;;;17.80;41.40;;;;;;4975415;28;20479;-65
2022/04/17 16:23:26;;;;;;;5.63;1.47;;;17.80;43.00;;;;;;4974658;28;20462;-65
2022/04/17 16:25:54;;;;;;;1.30;1.30;;;17.80;41.90;;;;;;4974302;28;20977;-66
2022/04/17 16:28:22;;;;;;;1.93;1.67;;;17.80;41.80;;;;;;4974593;28;20462;-65
2022/04/17 16:30:48;;;;;;;1.57;1.40;;;17.70;41.90;;;;;;4974511;28;20496;-65
2022/04/17 16:33:15;;;;;;;1.30;1.30;;;17.60;41.50;;;;;;4974580;28;20465;-65
2022/04/17 16:35:42;;;;;;;1.57;1.47;;;17.60;41.30;;;;;;4977804;28;20461;-65
2022/04/17 16:38:10;;;;;;;1.80;1.63;;;17.40;41.30;;;;;;4978458;28;20512;-65
2022/04/17 16:40:36;;;;;;;1.80;1.50;;;17.30;40.90;;;;;;4978515;28;20482;-65
2022/04/17 16:43:05;;;;;;;2.30;1.80;;;17.20;41.50;;;;;;4978336;28;20486;-65
2022/04/17 16:45:31;;;;;;;2.70;2.50;;;17.10;41.90;;;;;;4979308;28;20466;-65
2022/04/17 16:47:58;;;;;;;2.70;2.30;;;17.00;41.60;;;;;;4978507;28;20450;-65
2022/04/17 16:50:25;;;;;;;4.80;1.83;;;16.90;41.80;;;;;;4978412;28;20454;-65
2022/04/17 16:52:52;;;;;;;2.10;1.90;;;16.70;42.10;;;;;;4978082;28;20985;-65
2022/04/17 16:55:18;;;;;;;1.43;1.10;;;16.60;41.60;;;;;;4978462;28;20458;-65
2022/04/17 17:00:30;;;;;;;3.93;1.50;;;16.40;45.00;;;;;;4978186;28;20419;-66
2022/04/17 17:02:57;;;;;;;1.43;1.27;;;16.20;42.50;;;;;;4978160;28;20473;-66
2022/04/17 17:05:24;;;;;;;1.67;1.57;;;16.10;43.10;;;;;;4978105;28;20481;-65
2022/04/17 17:07:51;;;;;;;1.97;1.90;;;16.00;43.60;;;;;;4978088;28;20459;-66